createdAt,value
2019-05-02T00:02:32.756Z,78.68
2019-05-02T00:05:04.823Z,78.72
2019-05-02T00:07:36.232Z,78.96
2019-05-02T00:10:09.989Z,79.19
2019-05-02T00:12:41.388Z,79.47
2019-05-02T00:15:15.471Z,79.61
2019-05-02T00:17:46.797Z,79.61
2019-05-02T00:20:21.259Z,79.68
2019-05-02T00:22:53.446Z,79.75
2019-05-02T00:25:24.793Z,79.87
2019-05-02T00:27:56.065Z,80.00
2019-05-02T00:30:29.935Z,80.04
2019-05-02T00:33:00.412Z,80.11
2019-05-02T00:35:31.703Z,80.20
2019-05-02T00:38:03.908Z,80.15
2019-05-02T00:40:35.240Z,80.16
2019-05-02T00:43:06.608Z,80.11
2019-05-02T00:45:38.020Z,80.28
2019-05-02T00:48:14.844Z,80.42
2019-05-02T00:50:50.650Z,80.50
2019-05-02T00:53:20.928Z,80.52
2019-05-02T00:55:52.310Z,80.35
2019-05-02T00:58:27.351Z,80.39
2019-05-02T01:01:24.292Z,80.39
2019-05-02T01:03:58.175Z,80.45
2019-05-02T01:06:29.457Z,80.66
2019-05-02T01:09:00.746Z,80.81
2019-05-02T01:11:33.217Z,80.88
2019-05-02T01:14:04.561Z,80.79
2019-05-02T01:16:35.978Z,80.73
2019-05-02T01:19:07.305Z,80.62
2019-05-02T01:21:40.033Z,80.56
2019-05-02T01:24:11.392Z,80.12
2019-05-02T01:26:49.684Z,80.02
2019-05-02T01:29:35.814Z,80.15
2019-05-02T01:32:16.762Z,80.69
2019-05-02T01:34:54.326Z,81.14
2019-05-02T01:37:51.078Z,81.34
2019-05-02T01:40:20.927Z,81.36
2019-05-02T01:42:52.268Z,81.04
2019-05-02T01:45:23.566Z,80.84
2019-05-02T01:47:54.908Z,80.87
2019-05-02T01:50:28.938Z,80.88
2019-05-02T01:53:00.197Z,81.00
2019-05-02T01:55:31.487Z,81.36
2019-05-02T01:58:02.762Z,81.74
2019-05-02T02:00:34.116Z,82.08
2019-05-02T02:03:09.136Z,82.28
2019-05-02T02:05:38.807Z,82.17
2019-05-02T02:08:10.209Z,82.10
2019-05-02T02:10:43.817Z,82.25
2019-05-02T02:13:14.505Z,82.56
2019-05-02T02:15:45.818Z,82.71
2019-05-02T02:18:22.113Z,82.62
2019-05-02T02:21:10.121Z,82.32
2019-05-02T02:24:06.400Z,82.59
2019-05-02T02:26:37.717Z,83.10
2019-05-02T02:29:09.363Z,83.62
2019-05-02T02:31:46.578Z,84.00
2019-05-02T02:34:13.714Z,84.74
2019-05-02T02:36:45.006Z,85.11
2019-05-02T02:39:17.091Z,85.17
2019-05-02T02:41:52.232Z,85.11
2019-05-02T02:44:41.912Z,85.24
2019-05-02T02:47:18.878Z,85.46
2019-05-02T02:49:46.357Z,85.54
2019-05-02T02:52:17.616Z,85.51
2019-05-02T02:54:48.999Z,85.25
2019-05-02T02:57:26.318Z,85.06
2019-05-02T02:59:53.263Z,85.01
2019-05-02T03:02:24.575Z,84.98
2019-05-02T03:04:55.914Z,84.71
2019-05-02T03:07:28.964Z,84.35
2019-05-02T03:10:06.061Z,84.10
2019-05-02T03:12:51.410Z,84.13
2019-05-02T03:15:27.912Z,84.18
2019-05-02T03:17:59.889Z,84.18
2019-05-02T03:20:39.914Z,84.26
2019-05-02T03:23:03.490Z,84.34
2019-05-02T03:25:49.683Z,84.38
2019-05-02T03:28:17.727Z,84.43
2019-05-02T03:30:40.866Z,84.26
2019-05-02T03:33:12.704Z,84.31
2019-05-02T03:35:48.935Z,84.26
2019-05-02T03:38:18.406Z,84.33
2019-05-02T03:40:49.876Z,84.34
2019-05-02T03:43:25.765Z,84.39
2019-05-02T03:45:54.228Z,84.47
2019-05-02T03:48:27.898Z,84.52
2019-05-02T03:50:58.557Z,84.55
2019-05-02T03:53:29.873Z,84.48
2019-05-02T03:56:10.620Z,84.49
2019-05-02T03:58:34.239Z,84.65
2019-05-02T04:01:05.537Z,84.57
2019-05-02T04:03:40.982Z,84.66
2019-05-02T04:06:14.082Z,84.70
2019-05-02T04:08:58.711Z,84.50
2019-05-02T04:11:25.927Z,84.41
2019-05-02T04:13:58.089Z,84.35
2019-05-02T04:16:31.030Z,84.56
2019-05-02T04:19:06.416Z,84.57
2019-05-02T04:21:38.438Z,84.72
2019-05-02T04:24:14.909Z,84.75
2019-05-02T04:26:53.629Z,84.63
2019-05-02T04:29:24.462Z,84.33
2019-05-02T04:31:52.268Z,84.22
2019-05-02T04:34:23.543Z,84.10
2019-05-02T04:37:01.299Z,83.82
2019-05-02T04:39:28.643Z,83.50
2019-05-02T04:42:05.550Z,83.43
2019-05-02T04:44:41.146Z,83.36
2019-05-02T04:47:17.357Z,83.20
2019-05-02T04:49:39.450Z,83.26
2019-05-02T04:52:12.184Z,83.17
2019-05-02T04:54:43.811Z,83.13
2019-05-02T04:57:15.141Z,83.17
2019-05-02T04:59:50.063Z,83.15
2019-05-02T05:02:21.287Z,83.14
2019-05-02T05:04:52.485Z,83.06
2019-05-02T05:07:23.795Z,83.10
2019-05-02T05:09:58.079Z,82.93
2019-05-02T05:12:32.503Z,82.85
2019-05-02T05:15:01.109Z,82.59
2019-05-02T05:17:33.883Z,82.48
2019-05-02T05:20:13.666Z,81.91
2019-05-02T05:22:44.130Z,82.21
2019-05-02T05:25:21.120Z,82.26
2019-05-02T05:27:52.645Z,82.90
2019-05-02T05:30:23.038Z,83.12
2019-05-02T05:32:54.342Z,83.12
2019-05-02T05:35:27.730Z,82.80
2019-05-02T05:37:58.685Z,82.68
2019-05-02T05:40:32.050Z,82.30
2019-05-02T05:43:12.976Z,82.13
2019-05-02T05:45:50.302Z,81.85
2019-05-02T05:48:09.082Z,81.58
2019-05-02T05:50:41.477Z,81.51
2019-05-02T05:53:17.387Z,81.41
2019-05-02T05:55:47.340Z,81.09
2019-05-02T05:58:18.936Z,81.00
2019-05-02T06:00:53.762Z,80.62
2019-05-02T06:03:23.247Z,80.62
2019-05-02T06:05:54.616Z,80.55
2019-05-02T06:08:25.908Z,79.93
2019-05-02T06:10:57.219Z,79.85
2019-05-02T06:13:28.545Z,79.87
2019-05-02T06:16:02.542Z,79.97
2019-05-02T06:18:36.414Z,80.00
2019-05-02T06:21:08.849Z,79.37
2019-05-02T06:23:41.398Z,79.68
2019-05-02T06:26:13.419Z,79.79
2019-05-02T06:28:44.969Z,79.78
2019-05-02T06:31:17.161Z,79.40
2019-05-02T06:33:48.694Z,79.07
2019-05-02T06:36:19.987Z,78.30
2019-05-02T06:38:56.152Z,77.88
2019-05-02T06:41:24.564Z,77.72
2019-05-02T06:43:55.894Z,76.58
2019-05-02T06:46:28.031Z,76.15
2019-05-02T06:49:00.329Z,76.08
2019-05-02T06:51:31.666Z,75.52
2019-05-02T06:54:02.949Z,74.99
2019-05-02T06:56:34.255Z,74.66
2019-05-02T06:59:05.621Z,74.79
2019-05-02T07:01:37.034Z,74.70
2019-05-02T07:04:08.347Z,75.00
2019-05-02T07:06:50.065Z,76.38
2019-05-02T07:09:12.961Z,76.16
2019-05-02T07:11:56.616Z,76.65
2019-05-02T07:14:18.669Z,76.82
2019-05-02T07:16:59.821Z,76.43
2019-05-02T07:19:40.400Z,76.43
2019-05-02T07:22:11.727Z,76.48
2019-05-02T07:24:42.967Z,76.19
2019-05-02T07:27:14.289Z,76.22
2019-05-02T07:29:45.599Z,75.50
2019-05-02T07:32:19.183Z,75.57
2019-05-02T07:34:49.966Z,76.10
2019-05-02T07:37:21.274Z,76.48
2019-05-02T07:39:52.578Z,76.67
2019-05-02T07:42:23.884Z,76.55
2019-05-02T07:44:55.178Z,76.23
2019-05-02T07:47:28.728Z,75.87
2019-05-02T07:49:59.527Z,75.73
2019-05-02T07:52:33.747Z,73.76
2019-05-02T07:55:06.587Z,73.13
2019-05-02T07:57:36.932Z,73.19
2019-05-02T08:00:09.759Z,72.38
2019-05-02T08:02:41.076Z,71.98
2019-05-02T08:05:15.512Z,71.65
2019-05-02T08:07:45.842Z,71.87
2019-05-02T08:10:22.182Z,71.37
2019-05-02T08:12:52.233Z,71.32
2019-05-02T08:15:24.572Z,71.77
2019-05-02T08:17:56.529Z,71.85
2019-05-02T08:20:27.840Z,71.66
2019-05-02T08:22:59.185Z,71.85
2019-05-02T08:25:30.541Z,71.43
2019-05-02T08:28:10.174Z,71.68
2019-05-02T08:30:44.454Z,72.00
2019-05-02T08:33:15.760Z,72.45
2019-05-02T08:35:47.083Z,71.78
2019-05-02T08:38:19.046Z,72.06
2019-05-02T08:40:50.508Z,71.49
2019-05-02T08:43:21.789Z,71.18
2019-05-02T08:45:53.076Z,70.98
2019-05-02T08:48:24.386Z,69.82
2019-05-02T08:50:55.736Z,69.13
2019-05-02T08:53:27.069Z,68.73
2019-05-02T08:55:58.366Z,68.59
2019-05-02T08:58:29.724Z,67.50
2019-05-02T09:01:01.057Z,66.52
2019-05-02T09:03:38.870Z,65.91
2019-05-02T09:06:06.346Z,64.44
2019-05-02T09:08:37.791Z,63.41
2019-05-02T09:11:14.233Z,62.44
2019-05-02T09:13:42.257Z,63.63
2019-05-02T09:16:13.580Z,64.01
2019-05-02T09:18:51.925Z,63.78
2019-05-02T09:21:21.958Z,63.24
2019-05-02T09:23:53.326Z,62.77
2019-05-02T09:26:35.026Z,61.73
2019-05-02T09:29:01.747Z,60.45
2019-05-02T09:31:32.008Z,60.03
2019-05-02T09:34:03.842Z,59.12
2019-05-02T09:36:38.099Z,58.83
2019-05-02T09:39:09.070Z,58.52
2019-05-02T09:41:41.908Z,58.09
2019-05-02T09:44:18.472Z,56.26
2019-05-02T09:46:47.408Z,56.36
2019-05-02T09:49:19.407Z,55.20
2019-05-02T09:51:59.310Z,53.74
2019-05-02T09:54:23.760Z,54.04
2019-05-02T09:56:55.094Z,54.43
2019-05-02T09:59:33.342Z,55.77
2019-05-02T10:02:06.936Z,56.49
2019-05-02T10:04:41.348Z,56.28
2019-05-02T10:07:12.735Z,56.51
2019-05-02T10:09:44.459Z,55.73
2019-05-02T10:12:15.790Z,54.82
2019-05-02T10:14:47.142Z,55.18
2019-05-02T10:17:18.625Z,54.59
2019-05-02T10:19:54.984Z,53.99
2019-05-02T10:22:26.365Z,53.34
2019-05-02T10:24:56.195Z,50.79
2019-05-02T10:27:27.493Z,49.85
2019-05-02T10:30:08.114Z,49.22
2019-05-02T10:32:32.458Z,49.77
2019-05-02T10:35:03.818Z,49.32
2019-05-02T10:37:38.289Z,49.67
2019-05-02T10:40:13.498Z,48.48
2019-05-02T10:42:41.998Z,47.39
2019-05-02T10:45:16.766Z,47.81
2019-05-02T10:47:46.795Z,47.15
2019-05-02T10:50:25.903Z,47.71
2019-05-02T10:52:57.233Z,47.37
2019-05-02T10:55:28.535Z,46.22
2019-05-02T10:58:01.889Z,44.42
2019-05-02T11:00:36.250Z,45.05
2019-05-02T11:03:13.600Z,44.93
2019-05-02T11:05:47.066Z,45.71
2019-05-02T11:08:18.275Z,44.19
2019-05-02T11:10:49.520Z,43.83
2019-05-02T11:13:45.650Z,42.79
2019-05-02T11:16:34.551Z,41.49
2019-05-02T11:19:15.676Z,41.28
2019-05-02T11:21:56.274Z,42.66
2019-05-02T11:24:19.953Z,40.91
2019-05-02T11:26:52.857Z,41.92
2019-05-02T11:29:24.260Z,43.20
2019-05-02T11:31:55.563Z,42.22
2019-05-02T11:34:26.878Z,41.95
2019-05-02T11:36:58.187Z,40.48
2019-05-02T11:39:40.985Z,40.48
2019-05-02T11:42:02.523Z,39.90
2019-05-02T11:44:33.828Z,40.53
2019-05-02T11:47:05.161Z,39.78
2019-05-02T11:49:36.520Z,39.85
2019-05-02T11:52:07.903Z,41.26
2019-05-02T11:54:44.069Z,41.36
2019-05-02T11:57:12.242Z,41.49
2019-05-02T11:59:43.558Z,41.92
2019-05-02T12:02:36.556Z,41.67
2019-05-02T12:05:12.382Z,39.89
2019-05-02T12:07:43.614Z,40.68
2019-05-02T12:10:14.923Z,39.58
2019-05-02T12:12:46.247Z,40.42
2019-05-02T12:15:17.526Z,40.88
2019-05-02T12:17:48.852Z,40.91
2019-05-02T12:20:20.175Z,40.40
2019-05-02T12:22:52.810Z,41.82
2019-05-02T12:25:24.240Z,41.73
2019-05-02T12:27:55.567Z,41.39
2019-05-02T12:30:28.904Z,40.02
2019-05-02T12:32:59.879Z,38.85
2019-05-02T12:35:32.218Z,38.22
2019-05-02T12:38:03.654Z,38.82
2019-05-02T12:40:34.939Z,39.32
2019-05-02T12:43:06.278Z,40.75
2019-05-02T12:45:37.565Z,39.90
2019-05-02T12:48:08.885Z,39.36
2019-05-02T12:50:41.804Z,39.80
2019-05-02T12:53:13.259Z,39.60
2019-05-02T12:55:44.564Z,40.18
2019-05-02T12:58:15.849Z,39.49
2019-05-02T13:00:47.103Z,40.36
2019-05-02T13:03:55.291Z,40.96
2019-05-02T13:06:26.861Z,40.76
2019-05-02T13:08:58.192Z,39.74
2019-05-02T13:11:45.916Z,40.73
2019-05-02T13:14:20.110Z,41.75
2019-05-02T13:16:53.533Z,41.47
2019-05-02T13:19:37.261Z,41.35
2019-05-02T13:22:17.303Z,41.32
2019-05-02T13:24:56.230Z,41.11
2019-05-02T13:27:32.223Z,41.67
2019-05-02T13:30:03.205Z,40.37
2019-05-02T13:32:47.986Z,40.58
2019-05-02T13:35:31.623Z,39.79
2019-05-02T13:38:03.883Z,39.09
2019-05-02T13:40:44.110Z,40.15
2019-05-02T13:43:15.606Z,41.07
2019-05-02T13:46:22.147Z,41.50
2019-05-02T13:48:53.632Z,42.21
2019-05-02T13:51:25.050Z,42.55
2019-05-02T13:53:59.027Z,42.72
2019-05-02T13:56:49.259Z,42.36
2019-05-02T13:59:22.497Z,42.71
2019-05-02T14:01:56.563Z,42.65
2019-05-02T14:04:27.887Z,42.64
2019-05-02T14:06:59.168Z,43.50
2019-05-02T14:09:52.699Z,44.50
2019-05-02T14:12:28.706Z,44.71
2019-05-02T14:15:00.012Z,45.10
2019-05-02T14:17:32.659Z,45.48
2019-05-02T14:20:10.762Z,46.16
2019-05-02T14:22:37.158Z,46.67
2019-05-02T14:25:09.010Z,47.20
2019-05-02T14:27:42.222Z,47.78
2019-05-02T14:30:14.037Z,47.98
2019-05-02T14:32:45.351Z,47.97
2019-05-02T14:35:42.617Z,48.52
2019-05-02T14:38:14.841Z,49.34
2019-05-02T14:41:03.282Z,49.59
2019-05-02T14:43:54.097Z,50.06
2019-05-02T14:46:35.576Z,53.91
2019-05-02T14:49:00.018Z,54.73
2019-05-02T14:51:33.094Z,56.12
2019-05-02T14:54:08.228Z,56.84
2019-05-02T14:56:48.596Z,57.75
2019-05-02T14:59:20.259Z,58.29
2019-05-02T15:01:57.916Z,59.10
2019-05-02T15:04:29.115Z,60.48
2019-05-02T15:07:02.102Z,62.00
2019-05-02T15:09:36.150Z,63.05
2019-05-02T15:12:13.931Z,63.79
2019-05-02T15:14:39.656Z,64.60
2019-05-02T15:17:12.075Z,65.87
2019-05-02T15:19:43.472Z,66.92
2019-05-02T15:22:14.751Z,68.02
2019-05-02T15:24:46.134Z,68.91
2019-05-02T15:27:17.958Z,70.32
2019-05-02T15:29:53.968Z,70.11
2019-05-02T15:32:44.952Z,70.80
2019-05-02T15:35:31.789Z,71.50
2019-05-02T15:38:06.738Z,71.40
2019-05-02T15:40:48.057Z,71.59
2019-05-02T15:43:09.927Z,71.40
2019-05-02T15:45:44.121Z,72.40
2019-05-02T15:48:25.573Z,72.80
2019-05-02T15:50:53.078Z,72.79
2019-05-02T15:53:39.025Z,71.95
2019-05-02T15:56:18.707Z,71.75
2019-05-02T15:58:42.560Z,72.14
2019-05-02T16:01:24.703Z,71.70
2019-05-02T16:03:56.793Z,70.87
2019-05-02T16:06:31.645Z,70.58
2019-05-02T16:09:02.422Z,70.18
2019-05-02T16:11:33.864Z,69.94
2019-05-02T16:14:05.280Z,68.92
2019-05-02T16:16:40.837Z,68.80
2019-05-02T16:19:14.722Z,68.71
2019-05-02T16:21:52.001Z,68.49
2019-05-02T16:24:24.095Z,69.03
2019-05-02T16:26:57.130Z,69.52
2019-05-02T16:29:29.116Z,71.43
2019-05-02T16:32:07.744Z,71.83
2019-05-02T16:34:59.750Z,74.24
2019-05-02T16:37:32.479Z,74.91
2019-05-02T16:40:04.615Z,75.79
2019-05-02T16:42:36.097Z,77.08
2019-05-02T16:45:11.751Z,78.23
2019-05-02T16:47:43.111Z,79.33
2019-05-02T16:50:14.770Z,80.49
2019-05-02T16:52:47.482Z,81.62
2019-05-02T16:55:24.827Z,82.54
2019-05-02T16:57:56.864Z,83.12
2019-05-02T17:00:26.600Z,83.76
2019-05-02T17:02:57.965Z,84.95
2019-05-02T17:05:29.270Z,85.74
2019-05-02T17:08:20.180Z,86.28
2019-05-02T17:11:05.588Z,86.79
2019-05-02T17:13:36.896Z,87.31
2019-05-02T17:16:12.967Z,87.33
2019-05-02T17:18:43.281Z,87.51
2019-05-02T17:21:14.484Z,87.63
2019-05-02T17:23:50.419Z,87.78
2019-05-02T17:26:22.846Z,87.84
2019-05-02T17:28:54.206Z,87.74
2019-05-02T17:31:25.533Z,88.10
2019-05-02T17:33:56.857Z,87.99
2019-05-02T17:36:28.986Z,87.96
2019-05-02T17:39:06.326Z,88.23
2019-05-02T17:41:37.010Z,88.18
2019-05-02T17:44:07.474Z,87.92
2019-05-02T17:46:39.304Z,87.87
2019-05-02T17:49:11.932Z,87.66
2019-05-02T17:52:06.055Z,87.40
2019-05-02T17:54:38.291Z,86.89
2019-05-02T17:57:11.742Z,86.77
2019-05-02T17:59:42.841Z,86.05
2019-05-02T18:02:15.851Z,85.53
2019-05-02T18:04:52.176Z,85.92
2019-05-02T18:07:25.045Z,86.04
2019-05-02T18:09:53.249Z,86.08
2019-05-02T18:12:24.567Z,85.73
2019-05-02T18:14:58.937Z,85.93
2019-05-02T18:17:29.182Z,86.02
2019-05-02T18:20:02.235Z,86.47
2019-05-02T18:22:34.816Z,87.12
2019-05-02T18:25:06.831Z,87.99
2019-05-02T18:27:38.212Z,88.12
2019-05-02T18:30:12.776Z,88.59
2019-05-02T18:32:44.218Z,87.97
2019-05-02T18:35:15.624Z,88.30
2019-05-02T18:37:47.049Z,89.42
2019-05-02T18:40:20.193Z,89.94
2019-05-02T18:42:52.049Z,90.34
2019-05-02T18:45:28.564Z,91.41
2019-05-02T18:48:02.132Z,91.81
2019-05-02T18:50:41.861Z,92.09
2019-05-02T18:53:11.277Z,91.94
2019-05-02T18:55:42.769Z,92.08
2019-05-02T18:58:14.105Z,92.03
2019-05-02T19:00:45.446Z,92.01
2019-05-02T19:03:17.736Z,91.92
2019-05-02T19:05:51.579Z,92.11
2019-05-02T19:08:29.046Z,91.77
2019-05-02T19:11:04.709Z,92.25
2019-05-02T19:13:29.913Z,92.14
2019-05-02T19:16:02.056Z,93.01
2019-05-02T19:18:37.014Z,93.54
2019-05-02T19:21:08.871Z,93.48
2019-05-02T19:23:42.287Z,94.01
2019-05-02T19:26:15.375Z,93.82
2019-05-02T19:29:03.616Z,94.18
2019-05-02T19:31:46.653Z,94.73
2019-05-02T19:34:22.947Z,95.31
2019-05-02T19:36:52.834Z,95.50
2019-05-02T19:39:25.835Z,95.85
2019-05-02T19:41:57.170Z,96.04
2019-05-02T19:44:29.838Z,95.74
2019-05-02T19:47:02.535Z,96.03
2019-05-02T19:49:34.021Z,95.82
2019-05-02T19:52:05.524Z,95.96
2019-05-02T19:54:39.263Z,95.94
2019-05-02T19:57:11.697Z,96.19
2019-05-02T19:59:43.188Z,96.33
2019-05-02T20:02:14.447Z,96.39
2019-05-02T20:04:45.807Z,96.45
2019-05-02T20:07:17.207Z,95.84
2019-05-02T20:09:48.536Z,95.51
2019-05-02T20:12:21.922Z,95.74
2019-05-02T20:14:53.463Z,96.27
2019-05-02T20:17:24.827Z,96.42
2019-05-02T20:20:05.477Z,95.95
2019-05-02T20:22:31.658Z,96.12
2019-05-02T20:25:03.820Z,95.95
2019-05-02T20:27:35.321Z,94.51
2019-05-02T20:30:07.605Z,94.51
2019-05-02T20:32:38.901Z,94.35
2019-05-02T20:35:11.939Z,93.31
2019-05-02T20:37:43.389Z,91.52
2019-05-02T20:40:29.130Z,89.83
2019-05-02T20:43:02.423Z,89.92
2019-05-02T20:45:33.599Z,89.83
2019-05-02T20:48:05.381Z,89.29
2019-05-02T20:50:36.845Z,89.12
2019-05-02T20:53:08.321Z,89.07
2019-05-02T20:55:41.569Z,89.11
2019-05-02T20:58:12.764Z,89.36
2019-05-02T21:00:46.446Z,89.88
2019-05-02T21:03:17.939Z,90.14
2019-05-02T21:06:12.222Z,89.70
2019-05-02T21:09:02.050Z,88.64
2019-05-02T21:11:33.193Z,88.35
2019-05-02T21:14:05.070Z,87.66
2019-05-02T21:16:36.411Z,86.49
2019-05-02T21:19:07.822Z,86.51
2019-05-02T21:21:40.750Z,85.76
2019-05-02T21:24:12.930Z,85.87
2019-05-02T21:26:44.290Z,83.56
2019-05-02T21:29:15.646Z,82.62
2019-05-02T21:31:47.079Z,82.15
2019-05-02T21:34:18.453Z,82.59
2019-05-02T21:36:51.740Z,81.75
2019-05-02T21:39:22.876Z,81.23
2019-05-02T21:41:54.302Z,81.46
2019-05-02T21:44:25.693Z,81.83
2019-05-02T21:46:57.032Z,81.95
2019-05-02T21:49:43.013Z,82.33
2019-05-02T21:52:31.954Z,82.59
2019-05-02T21:55:13.574Z,82.93
2019-05-02T21:57:44.950Z,82.67
2019-05-02T22:00:47.875Z,82.98
2019-05-02T22:03:19.450Z,83.37
2019-05-02T22:05:50.856Z,83.81
2019-05-02T22:08:22.271Z,83.46
2019-05-02T22:10:53.577Z,83.58
2019-05-02T22:13:24.865Z,83.85
2019-05-02T22:15:56.301Z,84.09
2019-05-02T22:18:27.669Z,84.41
2019-05-02T22:20:58.944Z,84.48
2019-05-02T22:23:31.807Z,84.88
2019-05-02T22:26:04.312Z,84.99
2019-05-02T22:28:35.654Z,85.10
2019-05-02T22:31:06.923Z,85.57
2019-05-02T22:33:38.240Z,85.74
2019-05-02T22:36:09.557Z,85.80
2019-05-02T22:38:49.384Z,85.42
2019-05-02T22:41:22.115Z,85.53
2019-05-02T22:43:53.648Z,85.68
2019-05-02T22:46:44.189Z,86.02
2019-05-02T22:49:16.282Z,86.25
2019-05-02T22:51:47.638Z,86.43
2019-05-02T22:54:27.893Z,86.64
2019-05-02T22:56:52.271Z,86.84
2019-05-02T22:59:24.005Z,87.04
2019-05-02T23:01:55.447Z,87.27
2019-05-02T23:04:26.774Z,87.11
2019-05-02T23:06:58.176Z,87.28
2019-05-02T23:09:29.460Z,87.47
2019-05-02T23:12:02.928Z,87.45
2019-05-02T23:14:34.142Z,87.53
2019-05-02T23:17:05.522Z,87.32
2019-05-02T23:19:36.822Z,87.48
2019-05-02T23:22:09.165Z,87.83
2019-05-02T23:24:59.420Z,88.06
2019-05-02T23:27:42.261Z,87.70
2019-05-02T23:30:17.190Z,87.95
2019-05-02T23:32:48.573Z,88.16
2019-05-02T23:35:19.981Z,88.27
2019-05-02T23:37:52.952Z,88.61
2019-05-02T23:40:24.523Z,88.89
2019-05-02T23:42:55.814Z,89.05
2019-05-02T23:45:27.126Z,88.81
2019-05-02T23:47:58.440Z,88.83
2019-05-02T23:50:29.765Z,88.67
2019-05-02T23:53:02.286Z,88.57
2019-05-02T23:55:33.765Z,89.02
2019-05-02T23:58:05.133Z,89.38
